Valle Toledo, Valles Caldera, New Mexico Weather observations

Data are for 10 minute period ending at time listed.
 Day   Time   Solar   Ave.   Ave.  Ave.  Vector  Max.   Baro.   Total    
  of    of     Rad.   Air    Rel.  Wind   Wind   Wind  Press.  Precip.   
Year   Day            Temp.  Hum.  Speed  Dir.   Gust                    
2015   (MST)  Kw/m2    F      %     mph   deg.    mph    mb.     in.     
-------------------------------------------------------------------------
 116   20:30   0.00   31.5    93    0.0     0     0.0   722.9    0.00 
 116   20:40   0.00   31.3    93    0.0     0     0.0   723.0    0.00 
 116   20:50   0.00   31.0    93    0.0     0     0.0   723.0    0.00 
 116   21:00   0.00   30.7    93    0.0     0     0.0   723.0    0.00 
 116   21:10   0.00   30.3    93    0.0     0     0.0   723.2    0.00 
 116   21:20   0.00   30.2    93    0.0     0     0.0   723.3    0.00 
 116   21:30   0.00   30.1    93    0.0     0     0.0   723.4    0.00 
 116   21:40   0.00   30.2    93    0.0     0     0.0   723.3    0.00 
 116   21:50   0.00   31.1    90    0.0     0     0.0   723.4    0.00 
 116   22:00   0.00   32.7    80    0.0     0     0.0   723.5    0.00 
 116   22:10   0.00   32.9    80    0.0     0     0.0   723.6    0.00 
 116   22:20   0.00   32.8    81    0.0     0     0.0   723.6    0.00 
 116   22:30   0.00   33.0    80    0.0     0     0.0   723.7    0.00 
 116   22:40   0.00   33.3    80    0.0     0     0.0   723.8    0.00 
 116   22:50   0.00   33.3    80    0.0     0     0.0   723.9    0.00 
 116   23:00   0.00   32.9    83    0.0     0     0.0   724.1    0.00 
 116   23:10   0.00   32.6    85    0.0     0     0.0   724.2    0.00 
 116   23:20   0.00   31.8    88    0.0     0     0.0   724.3    0.00 
 116   23:30   100.00  99999.0   99999  99999.0   99999   99999.0   99999.0   99999.00 
 116   23:40   100.00  99999.0   99999  99999.0   99999   99999.0   99999.0   99999.00 
 116   23:50   100.00  99999.0   99999  99999.0   99999   99999.0   99999.0   99999.00 
 117    0:00   100.00  99999.0   99999  99999.0   99999   99999.0   99999.0   99999.00 
 117    0:10   100.00  99999.0   99999  99999.0   99999   99999.0   99999.0   99999.00 
 117    0:20   100.00  99999.0   99999  99999.0   99999   99999.0   99999.0   99999.00 
 117    0:30   0.00   31.2    93    0.0     0     0.0   724.6    0.00 
 117    0:40   0.00   31.0    93    0.0     0     0.0   724.5    0.00 
 117    0:50   0.00   30.9    93    0.0     0     0.0   724.5    0.00 
 117    1:00   0.00   30.9    93    0.0     0     0.0   724.5    0.00 
 117    1:10   0.00   31.4    92    0.0     0     0.0   724.7    0.00 
 117    1:20   0.00   31.9    88    0.0     0     0.0   724.8    0.00 
 117    1:30   0.00   32.0    86    0.0     0     0.0   724.7    0.00 
 117    1:40   0.00   31.9    85    0.0     0     0.0   724.7    0.00 
 117    1:50   0.00   32.0    83    0.0     0     0.0   724.7    0.00 
 117    2:00   0.00   32.1    83    0.0     0     0.0   724.7    0.00 
 117    2:10   0.00   32.3    83    0.0     0     0.0   724.8    0.00 
 117    2:20   0.00   32.3    83    0.0     0     0.0   724.9    0.00 
 117    2:30   0.00   32.1    84    0.0     0     0.0   724.9    0.00 
 117    2:40   0.00   32.0    84    0.0     0     0.0   724.9    0.01 
 117    2:50   0.00   31.7    85    0.0     0     0.0   724.8    0.00 
 117    3:00   0.00   31.7    84    0.0     0     0.0   724.8    0.00 
 117    3:10   0.00   31.6    82    0.0     0     0.0   724.9    0.00 
 117    3:20   0.00   31.3    84    0.0     0     0.0   725.1    0.00 
 117    3:30   0.00   32.0    81    0.0     0     0.0   725.2    0.00 
 117    3:40   0.00   31.9    83    0.0     0     0.0   725.2    0.00 
 117    3:50   0.00   31.6    84    0.0     0     0.0   725.2    0.00 
 117    4:00   0.00   31.6    84    0.0     0     0.0   725.2    0.00 
 117    4:10   0.00   31.9    83    0.0     0     0.0   725.3    0.00 
 117    4:20   0.00   32.2    82    0.0     0     0.0   725.4    0.00 
 117    4:30   0.00   31.7    84    0.0     0     0.0   725.3    0.00 
 117    4:40   0.00   31.0    87    0.0     0     0.0   725.5    0.00 
 117    4:50   0.00   30.9    88    0.0     0     0.0   725.5    0.00 
 117    5:00   0.00   30.9    88    0.0     0     0.0   725.5    0.00 
 117    5:10   0.00   30.9    88    0.0     0     0.0   725.7    0.00 
 117    5:20   0.00   31.2    87    0.0     0     0.0   725.7    0.00 
 117    5:30   0.00   31.6    83    0.0     0     0.0   725.8    0.00 
 117    5:40   0.01   31.9    80    0.0     0     0.0   725.9    0.00 
 117    5:50   0.01   32.2    78    0.0     0     0.0   726.1    0.00 
 117    6:00   0.01   32.4    76    0.0     0     0.0   726.2    0.00 
 117    6:10   0.01   32.4    76    0.0     0     0.0   726.3    0.00 
 117    6:20   0.01   32.4    74    0.0     0     0.0   726.6    0.00 
 117    6:30   0.04   32.7    73    0.6    30    11.9   726.6    0.00 
 117    6:40   0.04   33.4    71    7.8    24    15.5   726.7    0.00 
 117    6:50   0.04   33.3    70    7.7    28    15.5   726.8    0.01 
 117    7:00   0.03   33.1    70    8.9    48    22.7   726.9    0.00 
 117    7:10   0.04   33.3    70   11.3    31    25.0   727.1    0.00 
 117    7:20   0.07   33.9    69    9.8    26    20.3   727.2    0.00 
 117    7:30   0.07   34.7    67    9.4    21    19.7   727.4    0.01 
 117    7:40   0.05   34.4    67    9.4    11    17.3   727.5    0.00 
 117    7:50   0.10   34.5    67   10.0    23    17.9   727.5    0.00 
 117    8:00   0.08   35.4    65   10.6     4    22.7   727.5    0.00 
 117    8:10   0.20   36.2    65   10.6    25    19.1   727.6    0.00 
 117    8:20   0.14   37.7    61    9.0    20    19.1   727.8    0.00 
 117    8:30   0.07   35.8    66    9.2     7    18.5   727.9    0.01 
 117    8:40   0.07   35.0    68    9.0     8    18.5   728.1    0.00 
 117    8:50   0.07   35.3    68    8.5     1    18.5   728.4    0.00 
 117    9:00   0.07   35.8    67    7.9   360    16.7   728.6    0.00 
 117    9:10   0.09   36.3    66    6.4   327    13.7   728.8    0.00 
 117    9:20   0.13   37.4    65    4.8   330    13.7   728.9    0.00 
 117    9:30   0.20   38.9    62    7.0   326    16.7   729.0    0.00 
 117    9:40   0.20   39.2    60    5.4   296    11.3   729.1    0.00 
 117    9:50   0.25   39.2    60    3.9   345     9.0   729.0    0.00 
 117   10:00   0.39   40.6    58    4.4   297    10.2   729.0    0.01 
 117   10:10   0.33   41.3    57    5.6   305    12.5   729.1    0.00 
 117   10:20   0.34   40.0    62    9.5   301    17.9   729.1    0.00 
 117   10:30   0.30   38.9    66    9.2   310    16.7   729.3    0.00 
 117   10:40   0.29   39.6    64    6.2   311    11.9   729.4    0.00 
 117   10:50   0.18   38.9    66    9.0   308    16.1   729.4    0.01 
 117   11:00   0.30   38.9    67    6.2   310    14.9   729.5    0.00 
 117   11:10   0.31   39.7    65    5.8   282    14.9   729.4    0.00 
 117   11:20   0.35   40.0    63    5.8   289    12.5   729.4    0.00 
 117   11:30   0.50   40.9    62    5.1   275    10.8   729.4    0.00 
 117   11:40   0.30   40.6    63    6.0   295    13.1   729.4    0.00 
 117   11:50   0.24   40.2    67    5.4   312    10.2   729.5    0.00 
 117   12:00   0.45   41.3    67    2.4   285     9.0   729.6    0.01 
 117   12:10   0.52   42.1    66    5.8   306     9.6   729.6    0.00 
 117   12:20   0.36   41.3    68    6.0   336     9.6   729.6    0.01 
 117   12:30   0.78   42.3    65    4.7    15    13.7   729.7    0.00 
 117   12:40   1.09   43.4    58    6.0    54    13.7   729.6    0.01 
 117   12:50   1.08   43.6    56    6.6    56    20.3   729.6    0.00 
 117   13:00   1.17   44.6    54    4.9    27    10.2   729.7    0.01 
 117   13:10   0.42   44.3    53    6.5   299    15.5   729.7    0.00 
 117   13:20   0.37   42.6    56    5.7   340    11.9   729.7    0.00 
 117   13:30   0.35   42.5    58    4.0   302     9.6   729.8    0.00 
 117   13:40   0.60   43.4    59    3.4   186     6.0   729.8    0.00 
 117   13:50   0.33   43.7    55    4.4   325    11.3   729.9    0.00 
 117   14:00   0.33   43.1    58    5.4   330     9.0   729.9    0.00 
 117   14:10   0.37   43.0    60    5.2   320    11.3   729.8    0.00 
 117   14:20   0.29   43.0    58    4.8   311    10.2   729.7    0.00 
 117   14:30   0.36   43.4    59    3.0   304     7.2   729.8    0.00 
 117   14:40   0.52   44.7    56    5.1   354    11.9   729.8    0.00 
 117   14:50   0.82   46.1    54    5.6   360    11.9   729.7    0.00 
 117   15:00   0.95   47.5    51    6.4    59    17.3   729.7    0.00 
 117   15:10   0.81   47.0    49    6.8    21    16.7   729.7    0.01 
 117   15:20   0.69   46.3    49    7.3    66    17.3   729.6    0.00 
 117   15:30   0.60   46.9    47    5.4    46    12.5   729.7    0.00 
 117   15:40   0.29   45.5    49    5.8    51    12.5   729.8    0.00 
 117   15:50   0.67   47.3    45    6.4   348    14.3   729.8    0.00 
 117   16:00   0.57   48.5    46    3.6   140    10.2   729.9    0.00 
 117   16:10   0.54   48.0    43    5.3    35    11.3   729.9    0.00 
 117   16:20   0.58   47.9    42    5.8   313    10.8   729.8    0.00 
 117   16:30   0.46   49.1    40    5.1    33    11.9   729.9    0.00 
 117   16:40   0.41   47.3    41    5.6    60    12.5   729.9    0.00 
 117   16:50   0.43   49.5    38    3.4    10     8.4   730.0    0.00 
 117   17:00   0.40   49.7    37    4.1    17     9.0   730.1    0.01 
 117   17:10   0.32   49.6    38    4.1   324     7.8   730.1    0.00 
 117   17:20   0.30   49.0    38    5.4     4    17.3   730.2    0.00 
 117   17:30   0.27   48.4    39    5.1    21    11.9   730.3    0.00 
 117   17:40   0.20   46.1    44    7.0   106    14.3   730.4    0.00 
 117   17:50   0.16   45.4    44    3.9    55     9.0   730.5    0.00 
 117   18:00   0.14   44.7    46    5.6   107    11.9   730.6    0.00 
 117   18:10   0.13   44.1    46    5.2    67     9.6   730.8    0.00 
 117   18:20   0.09   44.3    46    5.0   133    12.5   730.8    0.00 
 117   18:30   0.04   43.1    49    3.8   111     7.2   731.0    0.00 
 117   18:40   0.02   42.3    50    3.7    88     9.6   731.0    0.00 
 117   18:50   0.01   41.6    52    3.9    72     8.4   731.1    0.00 
 117   19:00   0.00   41.4    52    4.7   108     7.2   731.2    0.00 
 117   19:10   0.00   41.1    53    5.4    96     9.6   731.3    0.00 
 117   19:20   0.00   40.6    54    6.8    89    11.3   731.4    0.00 
 117   19:30   0.00   40.1    51    9.1    92    14.9   731.4    0.00 
 117   19:40   0.00   39.7    49    8.6    91    13.1   731.6    0.00 
 117   19:50   0.00   39.3    49    8.7    93    12.5   731.7    0.00 
 117   20:00   0.00   39.3    49    6.4    73    14.3   732.0    0.00 
 117   20:10   0.00   39.1    49    7.3    36    16.7   732.3    0.00 
 117   20:20   0.00   37.5    57    6.8    50    15.5   732.5    0.00 

Return to Valle Toledo, Valles Caldera graphs page.


Western Regional Climate Center,wrcc@dri.edu